sensor_id;sensor_type;location;lat;lon;timestamp;P1;durP1;ratioP1;P2;durP2;ratioP2
32705;SDS011;19094;50.972;3.538;2022-08-18T00:01:14;55.30;;;31.83;;
32705;SDS011;19094;50.972;3.538;2022-08-18T00:03:41;54.50;;;31.23;;
32705;SDS011;19094;50.972;3.538;2022-08-18T00:06:08;55.67;;;33.17;;
32705;SDS011;19094;50.972;3.538;2022-08-18T00:08:33;52.22;;;31.08;;
32705;SDS011;19094;50.972;3.538;2022-08-18T00:10:59;57.75;;;31.77;;
32705;SDS011;19094;50.972;3.538;2022-08-18T00:13:25;53.88;;;31.60;;
32705;SDS011;19094;50.972;3.538;2022-08-18T00:15:51;54.47;;;32.33;;
32705;SDS011;19094;50.972;3.538;2022-08-18T00:18:17;52.90;;;31.83;;
32705;SDS011;19094;50.972;3.538;2022-08-18T00:20:43;56.13;;;31.83;;
32705;SDS011;19094;50.972;3.538;2022-08-18T00:23:09;57.80;;;32.10;;
32705;SDS011;19094;50.972;3.538;2022-08-18T00:25:35;54.60;;;31.23;;
32705;SDS011;19094;50.972;3.538;2022-08-18T00:28:01;63.80;;;33.30;;
32705;SDS011;19094;50.972;3.538;2022-08-18T00:30:29;55.42;;;31.73;;
32705;SDS011;19094;50.972;3.538;2022-08-18T00:32:58;54.80;;;31.90;;
32705;SDS011;19094;50.972;3.538;2022-08-18T00:35:26;54.53;;;32.90;;
32705;SDS011;19094;50.972;3.538;2022-08-18T00:37:55;57.50;;;32.42;;
32705;SDS011;19094;50.972;3.538;2022-08-18T00:40:27;55.25;;;31.58;;
32705;SDS011;19094;50.972;3.538;2022-08-18T00:43:01;66.32;;;33.67;;
32705;SDS011;19094;50.972;3.538;2022-08-18T00:45:30;53.13;;;31.20;;
32705;SDS011;19094;50.972;3.538;2022-08-18T00:48:00;54.53;;;32.53;;
32705;SDS011;19094;50.972;3.538;2022-08-18T00:55:41;58.13;;;32.80;;
32705;SDS011;19094;50.972;3.538;2022-08-18T00:58:12;60.13;;;31.75;;
32705;SDS011;19094;50.972;3.538;2022-08-18T01:00:45;53.35;;;31.33;;
32705;SDS011;19094;50.972;3.538;2022-08-18T01:03:15;54.22;;;31.30;;
32705;SDS011;19094;50.972;3.538;2022-08-18T01:05:54;53.85;;;31.35;;
32705;SDS011;19094;50.972;3.538;2022-08-18T01:08:25;59.63;;;33.30;;
32705;SDS011;19094;50.972;3.538;2022-08-18T01:10:51;55.28;;;32.45;;
32705;SDS011;19094;50.972;3.538;2022-08-18T01:13:18;59.05;;;30.85;;
32705;SDS011;19094;50.972;3.538;2022-08-18T01:15:45;53.45;;;31.05;;
32705;SDS011;19094;50.972;3.538;2022-08-18T01:18:12;53.25;;;31.35;;
32705;SDS011;19094;50.972;3.538;2022-08-18T01:21:04;55.17;;;30.98;;
32705;SDS011;19094;50.972;3.538;2022-08-18T01:24:04;54.95;;;31.38;;
32705;SDS011;19094;50.972;3.538;2022-08-18T01:26:34;54.08;;;31.45;;
32705;SDS011;19094;50.972;3.538;2022-08-18T01:29:06;55.80;;;31.55;;
32705;SDS011;19094;50.972;3.538;2022-08-18T01:31:52;58.80;;;32.05;;
32705;SDS011;19094;50.972;3.538;2022-08-18T01:34:21;52.67;;;31.27;;
32705;SDS011;19094;50.972;3.538;2022-08-18T01:36:49;59.05;;;30.95;;
32705;SDS011;19094;50.972;3.538;2022-08-18T01:39:16;54.33;;;30.67;;
32705;SDS011;19094;50.972;3.538;2022-08-18T01:41:43;54.78;;;29.33;;
32705;SDS011;19094;50.972;3.538;2022-08-18T01:44:09;57.17;;;29.25;;
32705;SDS011;19094;50.972;3.538;2022-08-18T01:46:36;50.72;;;28.35;;
32705;SDS011;19094;50.972;3.538;2022-08-18T01:49:03;59.25;;;28.63;;
32705;SDS011;19094;50.972;3.538;2022-08-18T01:51:30;52.75;;;29.15;;
32705;SDS011;19094;50.972;3.538;2022-08-18T01:53:57;53.63;;;30.33;;
32705;SDS011;19094;50.972;3.538;2022-08-18T01:56:23;51.42;;;28.42;;
32705;SDS011;19094;50.972;3.538;2022-08-18T01:58:51;51.72;;;28.70;;
32705;SDS011;19094;50.972;3.538;2022-08-18T02:01:19;49.85;;;28.33;;
32705;SDS011;19094;50.972;3.538;2022-08-18T02:03:48;50.22;;;28.73;;
32705;SDS011;19094;50.972;3.538;2022-08-18T02:06:16;51.75;;;30.30;;
32705;SDS011;19094;50.972;3.538;2022-08-18T02:08:43;51.67;;;29.50;;
32705;SDS011;19094;50.972;3.538;2022-08-18T02:11:10;53.22;;;31.27;;
32705;SDS011;19094;50.972;3.538;2022-08-18T02:13:37;70.75;;;34.17;;
32705;SDS011;19094;50.972;3.538;2022-08-18T02:16:04;78.55;;;35.60;;
32705;SDS011;19094;50.972;3.538;2022-08-18T02:18:35;79.45;;;34.78;;
32705;SDS011;19094;50.972;3.538;2022-08-18T02:21:07;73.30;;;34.15;;
32705;SDS011;19094;50.972;3.538;2022-08-18T02:23:35;82.60;;;32.97;;
32705;SDS011;19094;50.972;3.538;2022-08-18T02:26:05;73.70;;;34.50;;
32705;SDS011;19094;50.972;3.538;2022-08-18T02:28:31;81.78;;;35.92;;
32705;SDS011;19094;50.972;3.538;2022-08-18T02:31:02;80.80;;;34.35;;
32705;SDS011;19094;50.972;3.538;2022-08-18T02:33:32;79.35;;;36.72;;
32705;SDS011;19094;50.972;3.538;2022-08-18T02:36:01;92.32;;;37.45;;
32705;SDS011;19094;50.972;3.538;2022-08-18T02:38:31;119.45;;;32.35;;
32705;SDS011;19094;50.972;3.538;2022-08-18T02:40:58;88.63;;;33.25;;
32705;SDS011;19094;50.972;3.538;2022-08-18T02:43:26;79.30;;;33.83;;
32705;SDS011;19094;50.972;3.538;2022-08-18T02:45:52;94.10;;;32.22;;
32705;SDS011;19094;50.972;3.538;2022-08-18T02:48:19;77.20;;;32.20;;
32705;SDS011;19094;50.972;3.538;2022-08-18T02:51:04;66.70;;;32.78;;
32705;SDS011;19094;50.972;3.538;2022-08-18T02:53:42;70.50;;;32.55;;
32705;SDS011;19094;50.972;3.538;2022-08-18T02:56:11;69.72;;;30.42;;
32705;SDS011;19094;50.972;3.538;2022-08-18T02:58:44;64.07;;;30.48;;
32705;SDS011;19094;50.972;3.538;2022-08-18T03:01:09;61.58;;;30.05;;
32705;SDS011;19094;50.972;3.538;2022-08-18T03:03:35;60.50;;;30.05;;
32705;SDS011;19094;50.972;3.538;2022-08-18T03:06:02;59.20;;;28.40;;
32705;SDS011;19094;50.972;3.538;2022-08-18T03:08:28;60.47;;;28.85;;
32705;SDS011;19094;50.972;3.538;2022-08-18T03:10:53;66.95;;;29.92;;
32705;SDS011;19094;50.972;3.538;2022-08-18T03:13:19;57.25;;;28.30;;
32705;SDS011;19094;50.972;3.538;2022-08-18T03:15:45;65.57;;;31.73;;
32705;SDS011;19094;50.972;3.538;2022-08-18T03:18:12;52.22;;;30.02;;
32705;SDS011;19094;50.972;3.538;2022-08-18T03:20:37;64.57;;;31.60;;
32705;SDS011;19094;50.972;3.538;2022-08-18T03:23:03;59.03;;;29.27;;
32705;SDS011;19094;50.972;3.538;2022-08-18T03:25:30;48.88;;;30.10;;
32705;SDS011;19094;50.972;3.538;2022-08-18T03:27:55;50.55;;;29.02;;
32705;SDS011;19094;50.972;3.538;2022-08-18T03:30:21;50.90;;;28.15;;
32705;SDS011;19094;50.972;3.538;2022-08-18T03:32:48;47.97;;;26.67;;
32705;SDS011;19094;50.972;3.538;2022-08-18T03:35:14;54.13;;;26.27;;
32705;SDS011;19094;50.972;3.538;2022-08-18T03:37:40;61.08;;;28.00;;
32705;SDS011;19094;50.972;3.538;2022-08-18T03:40:07;46.55;;;26.08;;
32705;SDS011;19094;50.972;3.538;2022-08-18T03:42:34;53.42;;;27.67;;
32705;SDS011;19094;50.972;3.538;2022-08-18T03:45:00;44.95;;;27.77;;
32705;SDS011;19094;50.972;3.538;2022-08-18T03:47:26;41.03;;;24.85;;
32705;SDS011;19094;50.972;3.538;2022-08-18T03:49:52;50.33;;;24.15;;
32705;SDS011;19094;50.972;3.538;2022-08-18T03:52:18;45.00;;;26.67;;
32705;SDS011;19094;50.972;3.538;2022-08-18T03:54:44;45.08;;;26.55;;
32705;SDS011;19094;50.972;3.538;2022-08-18T03:57:11;46.15;;;27.15;;
32705;SDS011;19094;50.972;3.538;2022-08-18T03:59:37;44.72;;;25.38;;
32705;SDS011;19094;50.972;3.538;2022-08-18T04:02:07;42.13;;;26.25;;
32705;SDS011;19094;50.972;3.538;2022-08-18T04:04:34;40.85;;;26.52;;
32705;SDS011;19094;50.972;3.538;2022-08-18T04:07:00;42.50;;;25.92;;
32705;SDS011;19094;50.972;3.538;2022-08-18T04:09:32;42.70;;;26.30;;
32705;SDS011;19094;50.972;3.538;2022-08-18T04:12:02;43.03;;;24.60;;
32705;SDS011;19094;50.972;3.538;2022-08-18T04:14:36;36.60;;;24.83;;
32705;SDS011;19094;50.972;3.538;2022-08-18T04:17:03;54.00;;;25.95;;
32705;SDS011;19094;50.972;3.538;2022-08-18T04:19:30;41.10;;;24.77;;
32705;SDS011;19094;50.972;3.538;2022-08-18T04:21:58;43.97;;;23.90;;
32705;SDS011;19094;50.972;3.538;2022-08-18T04:24:26;38.92;;;22.65;;
32705;SDS011;19094;50.972;3.538;2022-08-18T04:26:53;38.00;;;22.52;;
32705;SDS011;19094;50.972;3.538;2022-08-18T04:29:20;38.63;;;23.38;;
32705;SDS011;19094;50.972;3.538;2022-08-18T04:31:46;43.17;;;23.58;;
32705;SDS011;19094;50.972;3.538;2022-08-18T04:34:12;39.30;;;21.80;;
32705;SDS011;19094;50.972;3.538;2022-08-18T04:36:39;40.80;;;22.88;;
32705;SDS011;19094;50.972;3.538;2022-08-18T04:39:07;39.00;;;22.25;;
32705;SDS011;19094;50.972;3.538;2022-08-18T04:41:35;39.90;;;23.92;;
32705;SDS011;19094;50.972;3.538;2022-08-18T04:44:03;38.75;;;23.48;;
32705;SDS011;19094;50.972;3.538;2022-08-18T04:46:34;38.78;;;22.20;;
32705;SDS011;19094;50.972;3.538;2022-08-18T04:49:04;39.28;;;22.33;;
32705;SDS011;19094;50.972;3.538;2022-08-18T04:51:30;39.90;;;23.50;;
32705;SDS011;19094;50.972;3.538;2022-08-18T04:53:56;41.17;;;22.63;;
32705;SDS011;19094;50.972;3.538;2022-08-18T04:56:29;35.70;;;21.50;;
32705;SDS011;19094;50.972;3.538;2022-08-18T04:58:59;32.45;;;22.30;;
32705;SDS011;19094;50.972;3.538;2022-08-18T05:01:36;38.65;;;22.15;;
32705;SDS011;19094;50.972;3.538;2022-08-18T05:04:07;36.20;;;21.38;;
32705;SDS011;19094;50.972;3.538;2022-08-18T05:06:33;36.92;;;21.92;;
32705;SDS011;19094;50.972;3.538;2022-08-18T05:09:01;47.92;;;21.73;;
32705;SDS011;19094;50.972;3.538;2022-08-18T05:11:29;37.63;;;23.83;;
32705;SDS011;19094;50.972;3.538;2022-08-18T05:13:57;35.33;;;22.92;;
32705;SDS011;19094;50.972;3.538;2022-08-18T05:16:25;42.30;;;23.23;;
32705;SDS011;19094;50.972;3.538;2022-08-18T05:18:51;34.60;;;23.25;;
32705;SDS011;19094;50.972;3.538;2022-08-18T05:21:20;42.55;;;21.50;;
32705;SDS011;19094;50.972;3.538;2022-08-18T05:23:47;37.80;;;22.38;;
32705;SDS011;19094;50.972;3.538;2022-08-18T05:26:14;39.58;;;22.83;;
32705;SDS011;19094;50.972;3.538;2022-08-18T05:28:41;44.85;;;23.35;;
32705;SDS011;19094;50.972;3.538;2022-08-18T05:31:09;36.17;;;21.38;;
32705;SDS011;19094;50.972;3.538;2022-08-18T05:33:47;40.90;;;21.52;;
32705;SDS011;19094;50.972;3.538;2022-08-18T05:38:57;31.88;;;19.08;;
32705;SDS011;19094;50.972;3.538;2022-08-18T05:41:35;30.15;;;16.08;;
32705;SDS011;19094;50.972;3.538;2022-08-18T05:44:05;30.02;;;17.35;;
32705;SDS011;19094;50.972;3.538;2022-08-18T05:46:41;26.42;;;18.17;;
32705;SDS011;19094;50.972;3.538;2022-08-18T05:49:30;28.20;;;18.27;;
32705;SDS011;19094;50.972;3.538;2022-08-18T05:52:04;27.40;;;17.00;;
32705;SDS011;19094;50.972;3.538;2022-08-18T05:54:42;26.02;;;17.40;;
32705;SDS011;19094;50.972;3.538;2022-08-18T05:57:32;28.33;;;18.33;;
32705;SDS011;19094;50.972;3.538;2022-08-18T06:00:04;27.55;;;17.58;;
32705;SDS011;19094;50.972;3.538;2022-08-18T06:02:37;28.92;;;18.88;;
32705;SDS011;19094;50.972;3.538;2022-08-18T06:05:13;29.42;;;20.58;;
32705;SDS011;19094;50.972;3.538;2022-08-18T06:07:52;30.00;;;18.00;;
32705;SDS011;19094;50.972;3.538;2022-08-18T06:10:21;29.08;;;18.98;;
32705;SDS011;19094;50.972;3.538;2022-08-18T06:12:48;27.25;;;18.08;;
32705;SDS011;19094;50.972;3.538;2022-08-18T06:15:19;30.05;;;19.00;;
32705;SDS011;19094;50.972;3.538;2022-08-18T06:29:30;37.30;;;21.05;;
32705;SDS011;19094;50.972;3.538;2022-08-18T06:32:05;39.78;;;21.70;;
32705;SDS011;19094;50.972;3.538;2022-08-18T06:37:30;43.28;;;22.98;;
32705;SDS011;19094;50.972;3.538;2022-08-18T06:40:25;41.08;;;23.00;;
32705;SDS011;19094;50.972;3.538;2022-08-18T06:42:52;42.33;;;23.25;;
32705;SDS011;19094;50.972;3.538;2022-08-18T06:45:17;41.45;;;24.48;;
32705;SDS011;19094;50.972;3.538;2022-08-18T06:47:59;38.92;;;23.55;;
32705;SDS011;19094;50.972;3.538;2022-08-18T06:50:36;44.15;;;24.13;;
32705;SDS011;19094;50.972;3.538;2022-08-18T06:53:09;44.25;;;24.58;;
32705;SDS011;19094;50.972;3.538;2022-08-18T07:00:38;34.03;;;21.38;;
32705;SDS011;19094;50.972;3.538;2022-08-18T07:03:11;35.28;;;20.98;;
32705;SDS011;19094;50.972;3.538;2022-08-18T07:06:01;40.85;;;22.17;;
32705;SDS011;19094;50.972;3.538;2022-08-18T07:08:31;35.55;;;20.60;;
32705;SDS011;19094;50.972;3.538;2022-08-18T07:13:52;38.03;;;21.50;;
32705;SDS011;19094;50.972;3.538;2022-08-18T07:19:11;31.70;;;20.60;;
32705;SDS011;19094;50.972;3.538;2022-08-18T07:21:44;78.60;;;23.90;;
32705;SDS011;19094;50.972;3.538;2022-08-18T07:24:19;43.95;;;24.88;;
32705;SDS011;19094;50.972;3.538;2022-08-18T07:29:31;44.10;;;25.10;;
32705;SDS011;19094;50.972;3.538;2022-08-18T07:32:00;40.17;;;23.25;;
32705;SDS011;19094;50.972;3.538;2022-08-18T07:34:48;41.58;;;22.95;;
32705;SDS011;19094;50.972;3.538;2022-08-18T07:38:02;38.13;;;23.83;;
32705;SDS011;19094;50.972;3.538;2022-08-18T07:40:24;38.30;;;23.67;;
32705;SDS011;19094;50.972;3.538;2022-08-18T07:45:51;44.10;;;24.55;;
32705;SDS011;19094;50.972;3.538;2022-08-18T07:48:26;48.65;;;24.55;;
32705;SDS011;19094;50.972;3.538;2022-08-18T07:59:23;43.55;;;24.58;;
32705;SDS011;19094;50.972;3.538;2022-08-18T08:08:01;44.03;;;25.60;;
32705;SDS011;19094;50.972;3.538;2022-08-18T08:10:32;41.67;;;25.85;;
32705;SDS011;19094;50.972;3.538;2022-08-18T08:13:09;42.83;;;25.80;;
32705;SDS011;19094;50.972;3.538;2022-08-18T08:15:54;39.75;;;25.15;;
32705;SDS011;19094;50.972;3.538;2022-08-18T08:18:40;41.05;;;24.88;;
32705;SDS011;19094;50.972;3.538;2022-08-18T08:21:09;47.28;;;26.85;;
32705;SDS011;19094;50.972;3.538;2022-08-18T08:23:45;42.80;;;27.08;;
32705;SDS011;19094;50.972;3.538;2022-08-18T08:31:34;54.03;;;33.08;;
32705;SDS011;19094;50.972;3.538;2022-08-18T08:36:42;47.33;;;30.13;;
32705;SDS011;19094;50.972;3.538;2022-08-18T08:39:21;50.67;;;30.52;;
32705;SDS011;19094;50.972;3.538;2022-08-18T08:41:53;164.05;;;40.00;;
32705;SDS011;19094;50.972;3.538;2022-08-18T08:44:37;51.25;;;30.05;;
32705;SDS011;19094;50.972;3.538;2022-08-18T08:47:07;58.60;;;30.83;;
32705;SDS011;19094;50.972;3.538;2022-08-18T08:49:46;48.53;;;29.33;;
32705;SDS011;19094;50.972;3.538;2022-08-18T08:52:21;156.43;;;37.70;;
32705;SDS011;19094;50.972;3.538;2022-08-18T08:55:25;50.17;;;30.30;;
32705;SDS011;19094;50.972;3.538;2022-08-18T08:58:11;52.38;;;28.25;;
32705;SDS011;19094;50.972;3.538;2022-08-18T09:01:00;50.47;;;28.88;;
32705;SDS011;19094;50.972;3.538;2022-08-18T09:06:15;51.58;;;29.92;;
32705;SDS011;19094;50.972;3.538;2022-08-18T09:09:11;48.10;;;29.95;;
32705;SDS011;19094;50.972;3.538;2022-08-18T09:11:50;47.30;;;27.73;;
32705;SDS011;19094;50.972;3.538;2022-08-18T09:23:20;175.57;;;33.90;;
32705;SDS011;19094;50.972;3.538;2022-08-18T09:25:56;211.85;;;32.67;;
32705;SDS011;19094;50.972;3.538;2022-08-18T09:36:08;148.68;;;30.45;;
32705;SDS011;19094;50.972;3.538;2022-08-18T09:42:06;268.35;;;43.47;;
32705;SDS011;19094;50.972;3.538;2022-08-18T09:52:55;47.55;;;21.65;;
32705;SDS011;19094;50.972;3.538;2022-08-18T09:55:04;240.15;;;38.10;;
32705;SDS011;19094;50.972;3.538;2022-08-18T09:57:35;55.28;;;24.23;;
32705;SDS011;19094;50.972;3.538;2022-08-18T10:26:37;30.45;;;19.00;;
32705;SDS011;19094;50.972;3.538;2022-08-18T10:31:20;35.97;;;20.60;;
32705;SDS011;19094;50.972;3.538;2022-08-18T10:44:52;29.10;;;18.30;;
32705;SDS011;19094;50.972;3.538;2022-08-18T10:47:30;28.27;;;17.50;;
32705;SDS011;19094;50.972;3.538;2022-08-18T10:49:56;30.05;;;18.85;;
32705;SDS011;19094;50.972;3.538;2022-08-18T10:58:14;24.83;;;16.77;;
32705;SDS011;19094;50.972;3.538;2022-08-18T11:04:03;32.13;;;17.92;;
32705;SDS011;19094;50.972;3.538;2022-08-18T11:06:41;27.60;;;17.30;;
32705;SDS011;19094;50.972;3.538;2022-08-18T11:09:11;25.83;;;18.00;;
32705;SDS011;19094;50.972;3.538;2022-08-18T11:11:38;33.85;;;18.58;;
32705;SDS011;19094;50.972;3.538;2022-08-18T11:17:10;27.25;;;19.13;;
32705;SDS011;19094;50.972;3.538;2022-08-18T11:19:58;24.98;;;17.98;;
32705;SDS011;19094;50.972;3.538;2022-08-18T11:22:30;27.17;;;17.23;;
32705;SDS011;19094;50.972;3.538;2022-08-18T11:24:57;26.27;;;17.50;;
32705;SDS011;19094;50.972;3.538;2022-08-18T11:27:25;40.00;;;17.83;;
32705;SDS011;19094;50.972;3.538;2022-08-18T11:29:53;104.35;;;20.27;;
32705;SDS011;19094;50.972;3.538;2022-08-18T11:37:31;27.77;;;17.75;;
32705;SDS011;19094;50.972;3.538;2022-08-18T11:40:06;25.95;;;17.35;;
32705;SDS011;19094;50.972;3.538;2022-08-18T11:54:18;60.83;;;20.42;;
32705;SDS011;19094;50.972;3.538;2022-08-18T12:01:32;31.52;;;16.95;;
32705;SDS011;19094;50.972;3.538;2022-08-18T12:06:38;27.67;;;15.95;;
32705;SDS011;19094;50.972;3.538;2022-08-18T12:09:22;23.67;;;17.35;;
32705;SDS011;19094;50.972;3.538;2022-08-18T12:14:23;25.65;;;16.55;;
32705;SDS011;19094;50.972;3.538;2022-08-18T12:16:52;24.63;;;15.13;;
32705;SDS011;19094;50.972;3.538;2022-08-18T12:19:19;33.97;;;15.20;;
32705;SDS011;19094;50.972;3.538;2022-08-18T12:21:51;19.83;;;12.68;;
32705;SDS011;19094;50.972;3.538;2022-08-18T12:24:25;21.30;;;13.38;;
32705;SDS011;19094;50.972;3.538;2022-08-18T12:26:57;28.58;;;15.30;;
32705;SDS011;19094;50.972;3.538;2022-08-18T12:29:24;19.63;;;14.70;;
32705;SDS011;19094;50.972;3.538;2022-08-18T12:31:53;23.20;;;15.57;;
32705;SDS011;19094;50.972;3.538;2022-08-18T12:34:20;29.02;;;17.40;;
32705;SDS011;19094;50.972;3.538;2022-08-18T12:36:49;25.17;;;17.60;;
32705;SDS011;19094;50.972;3.538;2022-08-18T12:39:16;24.90;;;14.95;;
32705;SDS011;19094;50.972;3.538;2022-08-18T12:41:42;24.17;;;13.27;;
32705;SDS011;19094;50.972;3.538;2022-08-18T12:44:09;17.50;;;12.40;;
32705;SDS011;19094;50.972;3.538;2022-08-18T12:46:35;20.52;;;12.20;;
32705;SDS011;19094;50.972;3.538;2022-08-18T12:49:02;22.75;;;13.10;;
32705;SDS011;19094;50.972;3.538;2022-08-18T12:51:29;23.05;;;12.00;;
32705;SDS011;19094;50.972;3.538;2022-08-18T12:53:55;20.70;;;12.20;;
32705;SDS011;19094;50.972;3.538;2022-08-18T12:56:23;19.75;;;12.55;;
32705;SDS011;19094;50.972;3.538;2022-08-18T12:58:50;18.23;;;10.63;;
32705;SDS011;19094;50.972;3.538;2022-08-18T13:01:17;14.52;;;10.10;;
32705;SDS011;19094;50.972;3.538;2022-08-18T13:03:45;19.73;;;11.57;;
32705;SDS011;19094;50.972;3.538;2022-08-18T13:06:11;14.18;;;10.35;;
32705;SDS011;19094;50.972;3.538;2022-08-18T13:08:38;23.35;;;13.48;;
32705;SDS011;19094;50.972;3.538;2022-08-18T13:11:04;15.73;;;10.48;;
32705;SDS011;19094;50.972;3.538;2022-08-18T13:13:35;19.40;;;11.88;;
32705;SDS011;19094;50.972;3.538;2022-08-18T13:16:02;18.10;;;11.90;;
32705;SDS011;19094;50.972;3.538;2022-08-18T13:18:29;19.45;;;12.10;;
32705;SDS011;19094;50.972;3.538;2022-08-18T13:20:56;20.27;;;12.02;;
32705;SDS011;19094;50.972;3.538;2022-08-18T13:23:22;21.45;;;12.48;;
32705;SDS011;19094;50.972;3.538;2022-08-18T13:25:48;20.55;;;11.25;;
32705;SDS011;19094;50.972;3.538;2022-08-18T13:28:14;16.40;;;11.00;;
32705;SDS011;19094;50.972;3.538;2022-08-18T13:30:39;15.98;;;11.95;;
32705;SDS011;19094;50.972;3.538;2022-08-18T13:33:05;17.77;;;11.90;;
32705;SDS011;19094;50.972;3.538;2022-08-18T13:35:31;17.42;;;12.15;;
32705;SDS011;19094;50.972;3.538;2022-08-18T13:37:58;21.33;;;12.75;;
32705;SDS011;19094;50.972;3.538;2022-08-18T13:40:24;19.52;;;12.93;;
32705;SDS011;19094;50.972;3.538;2022-08-18T13:42:49;19.55;;;12.88;;
32705;SDS011;19094;50.972;3.538;2022-08-18T13:45:16;16.80;;;11.82;;
32705;SDS011;19094;50.972;3.538;2022-08-18T13:47:44;18.85;;;11.65;;
32705;SDS011;19094;50.972;3.538;2022-08-18T13:50:10;18.23;;;12.20;;
32705;SDS011;19094;50.972;3.538;2022-08-18T13:52:38;20.13;;;12.00;;
32705;SDS011;19094;50.972;3.538;2022-08-18T13:55:05;17.95;;;12.10;;
32705;SDS011;19094;50.972;3.538;2022-08-18T13:57:37;14.95;;;10.77;;
32705;SDS011;19094;50.972;3.538;2022-08-18T14:00:05;32.60;;;10.32;;
32705;SDS011;19094;50.972;3.538;2022-08-18T14:02:37;16.67;;;9.57;;
32705;SDS011;19094;50.972;3.538;2022-08-18T14:05:04;14.88;;;9.68;;
32705;SDS011;19094;50.972;3.538;2022-08-18T14:07:32;16.67;;;10.32;;
32705;SDS011;19094;50.972;3.538;2022-08-18T14:09:59;25.65;;;10.98;;
32705;SDS011;19094;50.972;3.538;2022-08-18T14:12:26;15.68;;;9.35;;
32705;SDS011;19094;50.972;3.538;2022-08-18T14:14:52;12.25;;;8.60;;
32705;SDS011;19094;50.972;3.538;2022-08-18T14:17:19;11.77;;;8.85;;
32705;SDS011;19094;50.972;3.538;2022-08-18T14:19:46;13.70;;;9.15;;
32705;SDS011;19094;50.972;3.538;2022-08-18T14:25:14;18.00;;;10.43;;
32705;SDS011;19094;50.972;3.538;2022-08-18T14:27:59;16.65;;;10.30;;
32705;SDS011;19094;50.972;3.538;2022-08-18T14:30:24;12.13;;;8.77;;
32705;SDS011;19094;50.972;3.538;2022-08-18T14:32:51;17.42;;;10.07;;
32705;SDS011;19094;50.972;3.538;2022-08-18T14:35:17;14.93;;;10.10;;
32705;SDS011;19094;50.972;3.538;2022-08-18T14:37:43;15.05;;;9.57;;
32705;SDS011;19094;50.972;3.538;2022-08-18T14:40:09;18.00;;;10.50;;
32705;SDS011;19094;50.972;3.538;2022-08-18T14:42:36;14.65;;;9.65;;
32705;SDS011;19094;50.972;3.538;2022-08-18T14:45:04;15.88;;;9.20;;
32705;SDS011;19094;50.972;3.538;2022-08-18T14:47:30;15.77;;;9.85;;
32705;SDS011;19094;50.972;3.538;2022-08-18T14:49:57;16.63;;;8.80;;
32705;SDS011;19094;50.972;3.538;2022-08-18T14:52:24;16.73;;;9.15;;
32705;SDS011;19094;50.972;3.538;2022-08-18T14:54:51;16.50;;;9.35;;
32705;SDS011;19094;50.972;3.538;2022-08-18T14:57:17;19.00;;;9.20;;
32705;SDS011;19094;50.972;3.538;2022-08-18T14:59:43;14.38;;;8.93;;
32705;SDS011;19094;50.972;3.538;2022-08-18T15:02:10;11.05;;;8.18;;
32705;SDS011;19094;50.972;3.538;2022-08-18T15:04:37;16.45;;;8.85;;
32705;SDS011;19094;50.972;3.538;2022-08-18T15:07:04;17.27;;;8.43;;
32705;SDS011;19094;50.972;3.538;2022-08-18T15:09:30;12.43;;;8.75;;
32705;SDS011;19094;50.972;3.538;2022-08-18T15:11:56;12.43;;;8.68;;
32705;SDS011;19094;50.972;3.538;2022-08-18T15:14:24;15.25;;;8.43;;
32705;SDS011;19094;50.972;3.538;2022-08-18T15:16:51;12.70;;;8.57;;
32705;SDS011;19094;50.972;3.538;2022-08-18T15:19:17;14.20;;;9.30;;
32705;SDS011;19094;50.972;3.538;2022-08-18T15:21:45;12.00;;;8.13;;
32705;SDS011;19094;50.972;3.538;2022-08-18T15:24:29;15.45;;;8.88;;
32705;SDS011;19094;50.972;3.538;2022-08-18T15:27:13;14.43;;;8.20;;
32705;SDS011;19094;50.972;3.538;2022-08-18T15:29:40;15.45;;;8.20;;
32705;SDS011;19094;50.972;3.538;2022-08-18T15:32:06;13.10;;;8.52;;
32705;SDS011;19094;50.972;3.538;2022-08-18T15:34:33;12.50;;;8.25;;
32705;SDS011;19094;50.972;3.538;2022-08-18T15:36:59;12.88;;;8.85;;
32705;SDS011;19094;50.972;3.538;2022-08-18T15:39:25;12.60;;;8.27;;
32705;SDS011;19094;50.972;3.538;2022-08-18T15:41:51;12.95;;;8.52;;
32705;SDS011;19094;50.972;3.538;2022-08-18T15:44:19;13.85;;;8.98;;
32705;SDS011;19094;50.972;3.538;2022-08-18T15:46:46;13.20;;;8.32;;
32705;SDS011;19094;50.972;3.538;2022-08-18T15:49:13;13.63;;;9.38;;
32705;SDS011;19094;50.972;3.538;2022-08-18T15:51:39;18.55;;;9.30;;
32705;SDS011;19094;50.972;3.538;2022-08-18T15:54:06;11.85;;;7.70;;
32705;SDS011;19094;50.972;3.538;2022-08-18T15:56:33;12.88;;;8.85;;
32705;SDS011;19094;50.972;3.538;2022-08-18T15:59:00;14.23;;;8.68;;
32705;SDS011;19094;50.972;3.538;2022-08-18T16:01:31;10.77;;;8.02;;
32705;SDS011;19094;50.972;3.538;2022-08-18T16:04:00;12.63;;;8.88;;
32705;SDS011;19094;50.972;3.538;2022-08-18T16:06:28;14.35;;;9.48;;
32705;SDS011;19094;50.972;3.538;2022-08-18T16:08:54;23.50;;;8.70;;
32705;SDS011;19094;50.972;3.538;2022-08-18T16:11:20;15.32;;;9.55;;
32705;SDS011;19094;50.972;3.538;2022-08-18T16:13:46;11.88;;;8.80;;
32705;SDS011;19094;50.972;3.538;2022-08-18T16:16:22;15.15;;;9.00;;
32705;SDS011;19094;50.972;3.538;2022-08-18T16:18:49;13.43;;;8.70;;
32705;SDS011;19094;50.972;3.538;2022-08-18T16:21:18;12.80;;;8.82;;
32705;SDS011;19094;50.972;3.538;2022-08-18T16:23:47;17.67;;;8.70;;
32705;SDS011;19094;50.972;3.538;2022-08-18T16:26:15;16.27;;;10.07;;
32705;SDS011;19094;50.972;3.538;2022-08-18T16:28:43;14.95;;;9.20;;
32705;SDS011;19094;50.972;3.538;2022-08-18T16:31:11;22.27;;;8.27;;
32705;SDS011;19094;50.972;3.538;2022-08-18T16:33:40;14.38;;;8.73;;
32705;SDS011;19094;50.972;3.538;2022-08-18T16:36:07;15.85;;;8.95;;
32705;SDS011;19094;50.972;3.538;2022-08-18T16:38:34;15.73;;;9.55;;
32705;SDS011;19094;50.972;3.538;2022-08-18T16:41:03;14.18;;;8.80;;
32705;SDS011;19094;50.972;3.538;2022-08-18T16:43:31;15.55;;;8.93;;
32705;SDS011;19094;50.972;3.538;2022-08-18T16:45:57;17.02;;;10.65;;
32705;SDS011;19094;50.972;3.538;2022-08-18T16:48:23;12.88;;;8.38;;
32705;SDS011;19094;50.972;3.538;2022-08-18T16:50:49;18.13;;;10.57;;
32705;SDS011;19094;50.972;3.538;2022-08-18T16:53:16;15.38;;;8.88;;
32705;SDS011;19094;50.972;3.538;2022-08-18T16:55:42;12.75;;;8.18;;
32705;SDS011;19094;50.972;3.538;2022-08-18T16:58:09;15.30;;;9.43;;
32705;SDS011;19094;50.972;3.538;2022-08-18T17:00:54;13.82;;;9.25;;
32705;SDS011;19094;50.972;3.538;2022-08-18T17:03:38;14.77;;;9.60;;
32705;SDS011;19094;50.972;3.538;2022-08-18T17:06:22;14.50;;;9.00;;
32705;SDS011;19094;50.972;3.538;2022-08-18T17:08:52;15.00;;;9.10;;
32705;SDS011;19094;50.972;3.538;2022-08-18T17:11:22;11.35;;;8.73;;
32705;SDS011;19094;50.972;3.538;2022-08-18T17:13:51;12.23;;;8.25;;
32705;SDS011;19094;50.972;3.538;2022-08-18T17:16:18;14.48;;;8.60;;
32705;SDS011;19094;50.972;3.538;2022-08-18T17:18:46;12.07;;;8.85;;
32705;SDS011;19094;50.972;3.538;2022-08-18T17:21:15;17.42;;;9.50;;
32705;SDS011;19094;50.972;3.538;2022-08-18T17:23:42;16.38;;;8.82;;
32705;SDS011;19094;50.972;3.538;2022-08-18T17:32:44;17.23;;;8.60;;
32705;SDS011;19094;50.972;3.538;2022-08-18T17:37:52;17.38;;;9.88;;
32705;SDS011;19094;50.972;3.538;2022-08-18T17:40:26;13.88;;;9.32;;
32705;SDS011;19094;50.972;3.538;2022-08-18T17:42:59;18.20;;;9.55;;